createdAt,value
2022-11-17T00:04:48.503Z,19.50
2022-11-17T00:09:54.326Z,21.63
2022-11-17T00:20:23.773Z,21.38
2022-11-17T00:25:29.569Z,15.50
2022-11-17T00:30:59.887Z,23.42
2022-11-17T00:36:05.827Z,21.33
2022-11-17T00:46:16.237Z,20.52
2022-11-17T00:51:22.162Z,20.35
2022-11-17T00:56:30.887Z,19.48
2022-11-17T01:01:37.135Z,20.10
2022-11-17T01:06:44.657Z,19.00
2022-11-17T01:11:56.630Z,20.30
2022-11-17T01:17:02.561Z,16.90
2022-11-17T01:27:16.953Z,17.42
2022-11-17T01:32:23.751Z,15.52
2022-11-17T01:37:29.758Z,13.25
2022-11-17T01:42:35.323Z,16.42
2022-11-17T01:47:53.505Z,15.18
2022-11-17T01:53:01.357Z,24.45
2022-11-17T01:58:15.670Z,13.55
2022-11-17T02:03:21.700Z,12.50
2022-11-17T02:08:29.316Z,12.80
2022-11-17T02:13:37.444Z,14.13
2022-11-17T02:18:44.453Z,13.70
2022-11-17T02:24:15.801Z,13.98
2022-11-17T02:29:21.601Z,13.60
2022-11-17T02:39:43.343Z,12.85
2022-11-17T02:45:00.100Z,12.48
2022-11-17T02:50:08.742Z,10.70
2022-11-17T02:55:14.882Z,11.20
2022-11-17T03:00:21.543Z,11.52
2022-11-17T03:05:31.446Z,10.10
2022-11-17T03:10:47.626Z,10.05
2022-11-17T03:16:25.732Z,11.35
2022-11-17T03:21:33.280Z,6.53
2022-11-17T03:26:41.951Z,10.43
2022-11-17T03:31:50.174Z,10.93
2022-11-17T03:37:00.941Z,12.27
2022-11-17T03:42:12.758Z,10.98
2022-11-17T03:47:20.221Z,10.52
2022-11-17T03:52:29.519Z,10.88
2022-11-17T03:57:35.039Z,10.80
2022-11-17T04:02:57.465Z,8.82
2022-11-17T04:08:03.591Z,12.52
2022-11-17T04:13:29.351Z,9.95
2022-11-17T04:18:35.193Z,8.63
2022-11-17T04:23:40.729Z,9.43
2022-11-17T04:28:50.787Z,11.10
2022-11-17T04:33:58.104Z,7.30
2022-11-17T04:39:04.393Z,9.35
2022-11-17T04:44:11.049Z,9.60
2022-11-17T04:49:17.645Z,7.57
2022-11-17T04:54:27.999Z,8.80
2022-11-17T04:59:33.889Z,7.65
2022-11-17T05:10:03.073Z,7.03
2022-11-17T05:15:12.211Z,6.00
2022-11-17T05:20:19.880Z,6.28
2022-11-17T05:25:25.501Z,5.50
2022-11-17T05:35:39.635Z,5.53
2022-11-17T05:40:45.368Z,5.82
2022-11-17T05:50:56.587Z,5.07
2022-11-17T05:56:20.781Z,5.40
2022-11-17T06:01:26.548Z,5.60
2022-11-17T06:06:33.270Z,4.28
2022-11-17T06:11:39.210Z,5.10
2022-11-17T06:16:47.006Z,4.50
2022-11-17T06:22:11.280Z,4.70
2022-11-17T06:27:18.800Z,4.05
2022-11-17T06:32:24.455Z,5.15
2022-11-17T06:42:53.830Z,4.57
2022-11-17T06:47:59.739Z,7.10
2022-11-17T06:58:13.191Z,5.18
2022-11-17T07:03:18.984Z,7.82
2022-11-17T07:08:24.928Z,6.63
2022-11-17T07:13:30.819Z,7.38
2022-11-17T07:18:37.636Z,9.13
2022-11-17T07:23:44.276Z,6.93
2022-11-17T07:28:50.209Z,9.35
2022-11-17T07:33:58.919Z,8.60
2022-11-17T07:39:05.438Z,6.13
2022-11-17T07:44:12.121Z,8.93
2022-11-17T07:49:17.874Z,8.07
2022-11-17T07:54:23.458Z,8.63
2022-11-17T08:04:34.261Z,6.28
2022-11-17T08:09:40.212Z,9.15
2022-11-17T08:14:46.545Z,3.38
2022-11-17T08:19:52.529Z,8.80
2022-11-17T08:24:58.705Z,5.43
2022-11-17T08:30:04.469Z,7.13
2022-11-17T08:35:10.583Z,9.00
2022-11-17T08:40:17.211Z,8.00
2022-11-17T08:45:26.610Z,5.75
2022-11-17T08:50:32.122Z,10.88
2022-11-17T08:55:41.470Z,10.20
2022-11-17T09:00:48.776Z,8.05
2022-11-17T09:05:55.383Z,7.88
2022-11-17T09:11:07.052Z,10.00
2022-11-17T09:16:13.759Z,10.93
2022-11-17T09:21:23.037Z,10.90
2022-11-17T09:26:29.084Z,12.30
2022-11-17T09:31:35.124Z,10.48
2022-11-17T09:36:41.060Z,12.00
2022-11-17T09:41:48.224Z,9.32
2022-11-17T09:47:02.906Z,8.23
2022-11-17T09:52:28.759Z,7.75
2022-11-17T09:57:46.581Z,9.73
2022-11-17T10:02:53.562Z,12.02
2022-11-17T10:08:05.165Z,9.75
2022-11-17T10:13:18.003Z,15.75
2022-11-17T10:18:23.967Z,17.20
2022-11-17T10:23:34.049Z,14.30
2022-11-17T10:28:49.952Z,15.35
2022-11-17T10:33:55.698Z,13.88
2022-11-17T10:39:02.464Z,24.13
2022-11-17T10:44:22.744Z,62.17
2022-11-17T10:49:30.677Z,13.77
2022-11-17T10:54:36.503Z,29.83
2022-11-17T10:59:57.018Z,19.17
2022-11-17T11:05:14.500Z,13.10
2022-11-17T11:10:21.816Z,11.40
2022-11-17T11:15:28.415Z,14.18
2022-11-17T11:20:49.047Z,40.08
2022-11-17T11:25:57.284Z,17.00
2022-11-17T11:31:16.118Z,26.08
2022-11-17T11:36:27.845Z,24.67
2022-11-17T11:41:46.901Z,21.95
2022-11-17T11:46:53.862Z,17.97
2022-11-17T11:52:00.088Z,21.30
2022-11-17T11:57:09.483Z,17.00
2022-11-17T12:02:16.148Z,18.05
2022-11-17T12:07:44.749Z,15.77
2022-11-17T12:12:51.079Z,20.77
2022-11-17T12:18:05.351Z,19.90
2022-11-17T12:23:29.630Z,20.08
2022-11-17T12:28:42.473Z,21.88
2022-11-17T12:33:57.785Z,15.55
2022-11-17T12:39:04.791Z,20.87
2022-11-17T12:44:28.730Z,11.52
2022-11-17T12:49:37.471Z,17.00
2022-11-17T12:54:57.643Z,21.75
2022-11-17T13:00:03.983Z,18.40
2022-11-17T13:05:16.330Z,20.70
2022-11-17T13:10:30.948Z,15.48
2022-11-17T13:15:36.606Z,15.38
2022-11-17T13:25:47.362Z,23.05
2022-11-17T13:30:56.432Z,20.88
2022-11-17T13:36:11.408Z,20.15
2022-11-17T13:41:24.212Z,27.23
2022-11-17T13:46:30.599Z,29.35
2022-11-17T13:51:40.477Z,23.70
2022-11-17T13:56:49.210Z,28.08
2022-11-17T14:02:15.359Z,25.63
2022-11-17T14:07:35.120Z,22.80
2022-11-17T14:12:47.555Z,23.63
2022-11-17T14:17:54.593Z,24.90
2022-11-17T14:23:17.068Z,21.33
2022-11-17T14:28:27.798Z,25.58
2022-11-17T14:33:33.696Z,26.73
2022-11-17T14:43:44.840Z,25.77
2022-11-17T14:48:50.780Z,27.08
2022-11-17T14:53:56.488Z,25.02
2022-11-17T14:59:03.801Z,26.42
2022-11-17T15:04:34.509Z,27.08
2022-11-17T15:09:39.593Z,25.65
2022-11-17T15:14:45.374Z,26.40
2022-11-17T15:19:54.190Z,24.85
2022-11-17T15:25:05.979Z,24.65
2022-11-17T15:30:14.905Z,19.77
2022-11-17T15:41:33.199Z,22.80
2022-11-17T15:46:47.097Z,22.05
2022-11-17T15:51:53.835Z,23.42
2022-11-17T15:57:06.046Z,19.48
2022-11-17T16:02:12.368Z,22.38
2022-11-17T16:07:26.894Z,22.23
2022-11-17T16:12:32.767Z,19.60
2022-11-17T16:17:38.935Z,20.98
2022-11-17T16:22:44.507Z,21.02
2022-11-17T16:27:53.424Z,20.45
2022-11-17T16:32:59.766Z,19.65
2022-11-17T16:38:05.911Z,21.40
2022-11-17T16:43:13.826Z,23.65
2022-11-17T16:48:19.804Z,21.63
2022-11-17T16:53:25.747Z,23.63
2022-11-17T16:58:31.776Z,27.10
2022-11-17T17:03:38.600Z,28.88
2022-11-17T17:08:44.166Z,29.75
2022-11-17T17:13:50.745Z,29.95
2022-11-17T17:19:03.682Z,34.35
2022-11-17T17:24:10.039Z,31.00
2022-11-17T17:29:17.240Z,24.85
2022-11-17T17:34:23.217Z,27.40
2022-11-17T17:44:34.142Z,27.02
2022-11-17T17:49:39.811Z,25.30
2022-11-17T17:54:45.626Z,29.25
2022-11-17T17:59:51.544Z,30.75
2022-11-17T18:04:57.111Z,28.85
2022-11-17T18:10:02.669Z,31.17
2022-11-17T18:15:08.541Z,28.70
2022-11-17T18:20:14.711Z,28.00
2022-11-17T18:25:20.514Z,27.38
2022-11-17T18:30:26.070Z,26.75
2022-11-17T18:35:31.636Z,25.45
2022-11-17T18:40:37.881Z,23.17
2022-11-17T18:45:43.675Z,19.42
2022-11-17T18:51:17.730Z,20.80
2022-11-17T18:56:16.267Z,18.05
2022-11-17T19:01:23.066Z,16.65
2022-11-17T19:06:29.065Z,15.73
2022-11-17T19:11:36.085Z,17.30
2022-11-17T19:16:44.891Z,16.65
2022-11-17T19:21:51.222Z,17.23
2022-11-17T19:26:57.150Z,16.55
2022-11-17T19:32:03.121Z,16.02
2022-11-17T19:37:09.244Z,15.38
2022-11-17T19:42:14.937Z,15.73
2022-11-17T19:47:20.844Z,15.07
2022-11-17T19:57:31.481Z,14.20
2022-11-17T20:07:42.675Z,13.38
2022-11-17T20:12:48.518Z,13.50
2022-11-17T20:22:59.637Z,14.02
2022-11-17T20:33:10.894Z,14.90
2022-11-17T20:38:16.492Z,14.43
2022-11-17T20:43:22.036Z,13.32
2022-11-17T20:48:29.039Z,15.43
2022-11-17T20:53:35.635Z,14.88
2022-11-17T20:58:41.980Z,13.77
2022-11-17T21:03:47.711Z,15.23
2022-11-17T21:08:53.784Z,15.88
2022-11-17T21:13:59.714Z,14.82
2022-11-17T21:19:05.930Z,13.95
2022-11-17T21:24:11.866Z,16.10
2022-11-17T21:29:18.193Z,14.80
2022-11-17T21:34:24.798Z,15.88
2022-11-17T21:39:30.581Z,16.17
2022-11-17T21:44:36.778Z,16.23
2022-11-17T21:54:47.864Z,16.73
2022-11-17T21:59:53.560Z,19.23
2022-11-17T22:04:59.414Z,21.23
2022-11-17T22:15:11.946Z,22.13
2022-11-17T22:20:17.861Z,22.58
2022-11-17T22:30:48.521Z,21.00
2022-11-17T22:41:03.420Z,28.08
2022-11-17T22:46:13.284Z,22.83
2022-11-17T22:51:39.085Z,22.08
2022-11-17T22:56:45.018Z,19.45
2022-11-17T23:01:50.750Z,21.27
2022-11-17T23:06:56.366Z,21.83
2022-11-17T23:17:07.606Z,18.20
2022-11-17T23:22:13.705Z,20.67
2022-11-17T23:27:19.811Z,21.23
2022-11-17T23:32:26.258Z,19.85
2022-11-17T23:37:31.952Z,17.00
2022-11-17T23:42:42.690Z,17.17
2022-11-17T23:47:48.723Z,18.08
2022-11-17T23:52:54.257Z,17.38
2022-11-17T23:58:00.088Z,14.15
